Terminal Aerodrome Forecast
Issued by NWS

Home | Current Version | Previous Version | Text Only | Print | Product List | Glossary On
Versions: 1 2 3 4 5 6 7 8 9 10 11 12 13 14 15 16 17 18 19 20 21
916
FTUS43 KLSX 062151 AAA
TAFSUS
TAF AMD
KSUS 062151Z 0622/0718 25012G18KT P6SM FEW050 FEW250
     FM062300 25008KT P6SM FEW250
     FM070300 21006KT P6SM BKN120
     FM071700 27011KT P6SM BKN100=

USA.gov is the U.S. government's official web portal to all federal, state and local government web resources and services.